sensor_id;sensor_type;location;lat;lon;timestamp;temperature;humidity
22430;DHT22;11382;48.086;11.632;2023-12-20T00:02:15;5.90;99.90
22430;DHT22;11382;48.086;11.632;2023-12-20T00:04:43;5.90;99.90
22430;DHT22;11382;48.086;11.632;2023-12-20T00:07:11;5.90;99.90
22430;DHT22;11382;48.086;11.632;2023-12-20T00:09:39;5.80;99.90
22430;DHT22;11382;48.086;11.632;2023-12-20T00:12:08;5.80;99.90
22430;DHT22;11382;48.086;11.632;2023-12-20T00:14:36;5.80;99.90
22430;DHT22;11382;48.086;11.632;2023-12-20T00:17:06;5.80;99.90
22430;DHT22;11382;48.086;11.632;2023-12-20T00:19:34;5.80;99.90
22430;DHT22;11382;48.086;11.632;2023-12-20T00:22:03;5.80;99.90
22430;DHT22;11382;48.086;11.632;2023-12-20T00:24:31;5.80;99.90
22430;DHT22;11382;48.086;11.632;2023-12-20T00:26:59;5.70;99.90
22430;DHT22;11382;48.086;11.632;2023-12-20T00:29:27;5.70;99.90
22430;DHT22;11382;48.086;11.632;2023-12-20T00:31:55;5.70;99.90
22430;DHT22;11382;48.086;11.632;2023-12-20T00:34:24;5.70;99.90
22430;DHT22;11382;48.086;11.632;2023-12-20T00:36:52;5.70;99.90
22430;DHT22;11382;48.086;11.632;2023-12-20T00:39:21;5.70;99.90
22430;DHT22;11382;48.086;11.632;2023-12-20T00:41:50;5.70;99.90
22430;DHT22;11382;48.086;11.632;2023-12-20T00:44:18;5.80;99.90
22430;DHT22;11382;48.086;11.632;2023-12-20T00:46:46;5.90;99.90
22430;DHT22;11382;48.086;11.632;2023-12-20T00:49:14;6.00;99.90
22430;DHT22;11382;48.086;11.632;2023-12-20T00:51:43;6.20;99.90
22430;DHT22;11382;48.086;11.632;2023-12-20T00:54:11;6.30;99.90
22430;DHT22;11382;48.086;11.632;2023-12-20T00:56:40;6.50;99.90
22430;DHT22;11382;48.086;11.632;2023-12-20T00:59:08;6.60;99.90
22430;DHT22;11382;48.086;11.632;2023-12-20T01:01:36;6.70;99.90
22430;DHT22;11382;48.086;11.632;2023-12-20T01:04:05;6.80;99.90
22430;DHT22;11382;48.086;11.632;2023-12-20T01:06:33;6.80;99.90
22430;DHT22;11382;48.086;11.632;2023-12-20T01:09:03;6.90;99.90
22430;DHT22;11382;48.086;11.632;2023-12-20T01:11:31;6.90;99.90
22430;DHT22;11382;48.086;11.632;2023-12-20T01:14:00;7.00;99.90
22430;DHT22;11382;48.086;11.632;2023-12-20T01:16:28;7.00;99.90
22430;DHT22;11382;48.086;11.632;2023-12-20T01:18:57;7.00;99.90
22430;DHT22;11382;48.086;11.632;2023-12-20T01:21:25;6.90;99.90
22430;DHT22;11382;48.086;11.632;2023-12-20T01:23:54;7.00;99.90
22430;DHT22;11382;48.086;11.632;2023-12-20T01:26:23;7.00;99.90
22430;DHT22;11382;48.086;11.632;2023-12-20T01:28:51;6.90;99.90
22430;DHT22;11382;48.086;11.632;2023-12-20T01:31:19;6.90;99.90
22430;DHT22;11382;48.086;11.632;2023-12-20T01:33:47;6.90;99.90
22430;DHT22;11382;48.086;11.632;2023-12-20T01:36:15;6.90;99.90
22430;DHT22;11382;48.086;11.632;2023-12-20T01:38:43;6.80;99.90
22430;DHT22;11382;48.086;11.632;2023-12-20T01:41:11;6.90;99.90
22430;DHT22;11382;48.086;11.632;2023-12-20T01:43:41;6.80;99.90
22430;DHT22;11382;48.086;11.632;2023-12-20T01:46:17;6.80;99.90
22430;DHT22;11382;48.086;11.632;2023-12-20T01:48:47;6.90;99.90
22430;DHT22;11382;48.086;11.632;2023-12-20T01:51:15;6.80;99.90
22430;DHT22;11382;48.086;11.632;2023-12-20T01:53:44;6.80;99.90
22430;DHT22;11382;48.086;11.632;2023-12-20T01:56:12;6.80;99.90
22430;DHT22;11382;48.086;11.632;2023-12-20T01:58:44;6.80;99.90
22430;DHT22;11382;48.086;11.632;2023-12-20T02:01:13;6.80;99.90
22430;DHT22;11382;48.086;11.632;2023-12-20T02:03:42;6.80;99.90
22430;DHT22;11382;48.086;11.632;2023-12-20T02:06:11;6.80;99.90
22430;DHT22;11382;48.086;11.632;2023-12-20T02:08:39;6.80;99.90
22430;DHT22;11382;48.086;11.632;2023-12-20T02:11:07;6.80;99.90
22430;DHT22;11382;48.086;11.632;2023-12-20T02:13:36;6.90;99.90
22430;DHT22;11382;48.086;11.632;2023-12-20T02:16:05;6.90;99.90
22430;DHT22;11382;48.086;11.632;2023-12-20T02:18:35;6.90;99.90
22430;DHT22;11382;48.086;11.632;2023-12-20T02:21:05;7.00;99.90
22430;DHT22;11382;48.086;11.632;2023-12-20T02:23:34;7.00;99.90
22430;DHT22;11382;48.086;11.632;2023-12-20T02:26:03;7.00;99.90
22430;DHT22;11382;48.086;11.632;2023-12-20T02:28:32;7.10;99.90
22430;DHT22;11382;48.086;11.632;2023-12-20T02:31:01;7.10;99.90
22430;DHT22;11382;48.086;11.632;2023-12-20T02:33:30;7.10;99.90
22430;DHT22;11382;48.086;11.632;2023-12-20T02:35:58;7.20;99.90
22430;DHT22;11382;48.086;11.632;2023-12-20T02:38:26;7.10;99.90
22430;DHT22;11382;48.086;11.632;2023-12-20T02:40:55;7.20;99.90
22430;DHT22;11382;48.086;11.632;2023-12-20T02:43:23;7.20;99.90
22430;DHT22;11382;48.086;11.632;2023-12-20T02:45:51;7.20;99.90
22430;DHT22;11382;48.086;11.632;2023-12-20T02:48:19;7.20;99.90
22430;DHT22;11382;48.086;11.632;2023-12-20T02:50:48;7.30;99.90
22430;DHT22;11382;48.086;11.632;2023-12-20T02:53:17;7.30;99.90
22430;DHT22;11382;48.086;11.632;2023-12-20T02:55:45;7.30;99.90
22430;DHT22;11382;48.086;11.632;2023-12-20T02:58:14;7.30;99.90
22430;DHT22;11382;48.086;11.632;2023-12-20T03:00:44;7.40;99.90
22430;DHT22;11382;48.086;11.632;2023-12-20T03:03:12;7.40;99.90
22430;DHT22;11382;48.086;11.632;2023-12-20T03:05:40;7.40;99.90
22430;DHT22;11382;48.086;11.632;2023-12-20T03:08:08;7.40;99.90
22430;DHT22;11382;48.086;11.632;2023-12-20T03:10:37;7.40;99.90
22430;DHT22;11382;48.086;11.632;2023-12-20T03:13:05;7.40;99.90
22430;DHT22;11382;48.086;11.632;2023-12-20T03:15:34;7.40;99.90
22430;DHT22;11382;48.086;11.632;2023-12-20T03:18:04;7.40;99.90
22430;DHT22;11382;48.086;11.632;2023-12-20T03:20:32;7.30;99.90
22430;DHT22;11382;48.086;11.632;2023-12-20T03:23:01;7.20;99.90
22430;DHT22;11382;48.086;11.632;2023-12-20T03:25:29;7.20;99.90
22430;DHT22;11382;48.086;11.632;2023-12-20T03:27:57;7.10;99.90
22430;DHT22;11382;48.086;11.632;2023-12-20T03:30:25;7.20;99.90
22430;DHT22;11382;48.086;11.632;2023-12-20T03:32:55;7.10;99.90
22430;DHT22;11382;48.086;11.632;2023-12-20T03:35:23;7.10;99.90
22430;DHT22;11382;48.086;11.632;2023-12-20T03:37:51;7.20;99.90
22430;DHT22;11382;48.086;11.632;2023-12-20T03:40:19;7.10;99.90
22430;DHT22;11382;48.086;11.632;2023-12-20T03:42:47;7.10;99.90
22430;DHT22;11382;48.086;11.632;2023-12-20T03:45:15;7.00;99.90
22430;DHT22;11382;48.086;11.632;2023-12-20T03:47:43;7.10;99.90
22430;DHT22;11382;48.086;11.632;2023-12-20T03:50:13;7.10;99.90
22430;DHT22;11382;48.086;11.632;2023-12-20T03:52:41;7.10;99.90
22430;DHT22;11382;48.086;11.632;2023-12-20T03:55:10;7.10;99.90
22430;DHT22;11382;48.086;11.632;2023-12-20T03:57:38;7.00;99.90
22430;DHT22;11382;48.086;11.632;2023-12-20T04:00:07;7.10;99.90
22430;DHT22;11382;48.086;11.632;2023-12-20T04:02:41;7.00;99.90
22430;DHT22;11382;48.086;11.632;2023-12-20T04:05:10;7.00;99.90
22430;DHT22;11382;48.086;11.632;2023-12-20T04:07:39;7.00;99.90
22430;DHT22;11382;48.086;11.632;2023-12-20T04:10:08;7.00;99.90
22430;DHT22;11382;48.086;11.632;2023-12-20T04:12:36;7.10;99.90
22430;DHT22;11382;48.086;11.632;2023-12-20T04:15:05;7.10;99.90
22430;DHT22;11382;48.086;11.632;2023-12-20T04:17:36;7.00;99.90
22430;DHT22;11382;48.086;11.632;2023-12-20T04:20:05;7.00;99.90
22430;DHT22;11382;48.086;11.632;2023-12-20T04:22:34;7.00;99.90
22430;DHT22;11382;48.086;11.632;2023-12-20T04:25:06;6.90;99.90
22430;DHT22;11382;48.086;11.632;2023-12-20T04:27:34;6.80;99.90
22430;DHT22;11382;48.086;11.632;2023-12-20T04:30:04;6.80;99.90
22430;DHT22;11382;48.086;11.632;2023-12-20T04:32:32;6.80;99.90
22430;DHT22;11382;48.086;11.632;2023-12-20T04:35:00;6.80;99.90
22430;DHT22;11382;48.086;11.632;2023-12-20T04:37:28;6.80;99.90
22430;DHT22;11382;48.086;11.632;2023-12-20T04:39:56;6.70;99.90
22430;DHT22;11382;48.086;11.632;2023-12-20T04:42:26;6.70;99.90
22430;DHT22;11382;48.086;11.632;2023-12-20T04:44:54;6.70;99.90
22430;DHT22;11382;48.086;11.632;2023-12-20T04:47:22;6.70;99.90
22430;DHT22;11382;48.086;11.632;2023-12-20T04:49:51;6.60;99.90
22430;DHT22;11382;48.086;11.632;2023-12-20T04:52:19;6.60;99.90
22430;DHT22;11382;48.086;11.632;2023-12-20T04:54:47;6.60;99.90
22430;DHT22;11382;48.086;11.632;2023-12-20T04:57:15;6.60;99.90
22430;DHT22;11382;48.086;11.632;2023-12-20T04:59:45;6.60;99.90
22430;DHT22;11382;48.086;11.632;2023-12-20T05:02:13;6.60;99.90
22430;DHT22;11382;48.086;11.632;2023-12-20T05:04:40;6.60;99.90
22430;DHT22;11382;48.086;11.632;2023-12-20T05:07:08;6.60;99.90
22430;DHT22;11382;48.086;11.632;2023-12-20T05:09:36;6.60;99.90
22430;DHT22;11382;48.086;11.632;2023-12-20T05:12:06;6.50;99.90
22430;DHT22;11382;48.086;11.632;2023-12-20T05:14:34;6.50;99.90
22430;DHT22;11382;48.086;11.632;2023-12-20T05:17:03;6.40;99.90
22430;DHT22;11382;48.086;11.632;2023-12-20T05:19:31;6.40;99.90
22430;DHT22;11382;48.086;11.632;2023-12-20T05:22:02;6.30;99.90
22430;DHT22;11382;48.086;11.632;2023-12-20T05:24:31;6.30;99.90
22430;DHT22;11382;48.086;11.632;2023-12-20T05:26:59;6.20;99.90
22430;DHT22;11382;48.086;11.632;2023-12-20T05:29:27;6.20;99.90
22430;DHT22;11382;48.086;11.632;2023-12-20T05:31:55;6.20;99.90
22430;DHT22;11382;48.086;11.632;2023-12-20T05:34:24;6.10;99.90
22430;DHT22;11382;48.086;11.632;2023-12-20T05:36:53;6.10;99.90
22430;DHT22;11382;48.086;11.632;2023-12-20T05:39:22;6.10;99.90
22430;DHT22;11382;48.086;11.632;2023-12-20T05:41:50;6.00;99.90
22430;DHT22;11382;48.086;11.632;2023-12-20T05:44:19;6.00;99.90
22430;DHT22;11382;48.086;11.632;2023-12-20T05:46:48;5.90;99.90
22430;DHT22;11382;48.086;11.632;2023-12-20T05:49:16;5.90;99.90
22430;DHT22;11382;48.086;11.632;2023-12-20T05:51:46;5.90;99.90
22430;DHT22;11382;48.086;11.632;2023-12-20T05:54:14;5.80;99.90
22430;DHT22;11382;48.086;11.632;2023-12-20T05:56:42;5.80;99.90
22430;DHT22;11382;48.086;11.632;2023-12-20T05:59:12;5.70;99.90
22430;DHT22;11382;48.086;11.632;2023-12-20T06:01:40;5.70;99.90
22430;DHT22;11382;48.086;11.632;2023-12-20T06:04:09;5.70;99.90
22430;DHT22;11382;48.086;11.632;2023-12-20T06:06:40;5.70;99.90
22430;DHT22;11382;48.086;11.632;2023-12-20T06:09:10;5.60;99.90
22430;DHT22;11382;48.086;11.632;2023-12-20T06:11:41;5.50;99.90
22430;DHT22;11382;48.086;11.632;2023-12-20T06:14:09;5.50;99.90
22430;DHT22;11382;48.086;11.632;2023-12-20T06:16:37;5.40;99.90
22430;DHT22;11382;48.086;11.632;2023-12-20T06:19:05;5.30;99.90
22430;DHT22;11382;48.086;11.632;2023-12-20T06:21:33;5.30;99.90
22430;DHT22;11382;48.086;11.632;2023-12-20T06:24:01;5.20;99.90
22430;DHT22;11382;48.086;11.632;2023-12-20T06:26:31;5.20;99.90
22430;DHT22;11382;48.086;11.632;2023-12-20T06:28:59;5.20;99.90
22430;DHT22;11382;48.086;11.632;2023-12-20T06:31:27;5.10;99.90
22430;DHT22;11382;48.086;11.632;2023-12-20T06:33:56;5.10;99.90
22430;DHT22;11382;48.086;11.632;2023-12-20T06:36:31;5.10;99.90
22430;DHT22;11382;48.086;11.632;2023-12-20T06:39:00;5.10;99.90
22430;DHT22;11382;48.086;11.632;2023-12-20T06:41:31;5.10;99.90
22430;DHT22;11382;48.086;11.632;2023-12-20T06:43:59;5.10;99.90
22430;DHT22;11382;48.086;11.632;2023-12-20T06:46:28;5.00;99.90
22430;DHT22;11382;48.086;11.632;2023-12-20T06:48:56;5.00;99.90
22430;DHT22;11382;48.086;11.632;2023-12-20T06:51:24;4.90;99.90
22430;DHT22;11382;48.086;11.632;2023-12-20T06:53:53;4.90;99.90
22430;DHT22;11382;48.086;11.632;2023-12-20T06:56:21;4.90;99.90
22430;DHT22;11382;48.086;11.632;2023-12-20T06:58:52;4.80;99.90
22430;DHT22;11382;48.086;11.632;2023-12-20T07:01:20;4.70;99.90
22430;DHT22;11382;48.086;11.632;2023-12-20T07:03:48;4.70;99.90
22430;DHT22;11382;48.086;11.632;2023-12-20T07:06:16;4.70;99.90
22430;DHT22;11382;48.086;11.632;2023-12-20T07:08:45;4.70;99.90
22430;DHT22;11382;48.086;11.632;2023-12-20T07:11:13;4.70;99.90
22430;DHT22;11382;48.086;11.632;2023-12-20T07:13:41;4.60;99.90
22430;DHT22;11382;48.086;11.632;2023-12-20T07:16:11;4.60;99.90
22430;DHT22;11382;48.086;11.632;2023-12-20T07:18:41;4.60;99.90
22430;DHT22;11382;48.086;11.632;2023-12-20T07:21:10;4.70;99.90
22430;DHT22;11382;48.086;11.632;2023-12-20T07:23:38;4.70;99.90
22430;DHT22;11382;48.086;11.632;2023-12-20T07:26:07;4.60;99.90
22430;DHT22;11382;48.086;11.632;2023-12-20T07:28:35;4.60;99.90
22430;DHT22;11382;48.086;11.632;2023-12-20T07:31:03;4.60;99.90
22430;DHT22;11382;48.086;11.632;2023-12-20T07:33:33;4.60;99.90
22430;DHT22;11382;48.086;11.632;2023-12-20T07:36:06;4.70;99.90
22430;DHT22;11382;48.086;11.632;2023-12-20T07:38:34;4.60;99.90
22430;DHT22;11382;48.086;11.632;2023-12-20T07:41:03;4.60;99.90
22430;DHT22;11382;48.086;11.632;2023-12-20T07:43:32;4.60;99.90
22430;DHT22;11382;48.086;11.632;2023-12-20T07:46:04;4.70;99.90
22430;DHT22;11382;48.086;11.632;2023-12-20T07:48:35;4.70;99.90
22430;DHT22;11382;48.086;11.632;2023-12-20T07:51:04;4.70;99.90
22430;DHT22;11382;48.086;11.632;2023-12-20T07:53:34;4.70;99.90
22430;DHT22;11382;48.086;11.632;2023-12-20T07:56:14;4.70;99.90
22430;DHT22;11382;48.086;11.632;2023-12-20T07:58:42;4.80;99.90
22430;DHT22;11382;48.086;11.632;2023-12-20T08:01:19;4.80;99.90
22430;DHT22;11382;48.086;11.632;2023-12-20T08:03:50;4.80;99.90
22430;DHT22;11382;48.086;11.632;2023-12-20T08:06:19;4.80;99.90
22430;DHT22;11382;48.086;11.632;2023-12-20T08:08:47;4.80;99.90
22430;DHT22;11382;48.086;11.632;2023-12-20T08:11:28;4.80;99.90
22430;DHT22;11382;48.086;11.632;2023-12-20T08:13:56;4.80;99.90
22430;DHT22;11382;48.086;11.632;2023-12-20T08:16:25;4.80;99.90
22430;DHT22;11382;48.086;11.632;2023-12-20T08:18:54;4.80;99.90
22430;DHT22;11382;48.086;11.632;2023-12-20T08:21:23;4.90;99.90
22430;DHT22;11382;48.086;11.632;2023-12-20T08:23:51;5.00;99.90
22430;DHT22;11382;48.086;11.632;2023-12-20T08:26:20;4.90;99.90
22430;DHT22;11382;48.086;11.632;2023-12-20T08:28:50;4.90;99.90
22430;DHT22;11382;48.086;11.632;2023-12-20T08:31:18;4.90;99.90
22430;DHT22;11382;48.086;11.632;2023-12-20T08:33:48;4.90;99.90
22430;DHT22;11382;48.086;11.632;2023-12-20T08:36:19;5.00;99.90
22430;DHT22;11382;48.086;11.632;2023-12-20T08:38:48;5.00;99.90
22430;DHT22;11382;48.086;11.632;2023-12-20T08:41:17;4.90;99.90
22430;DHT22;11382;48.086;11.632;2023-12-20T08:43:45;4.90;99.90
22430;DHT22;11382;48.086;11.632;2023-12-20T08:46:14;4.90;99.90
22430;DHT22;11382;48.086;11.632;2023-12-20T08:48:42;4.90;99.90
22430;DHT22;11382;48.086;11.632;2023-12-20T08:51:11;4.80;99.90
22430;DHT22;11382;48.086;11.632;2023-12-20T08:53:41;4.90;99.90
22430;DHT22;11382;48.086;11.632;2023-12-20T08:56:12;4.90;99.90
22430;DHT22;11382;48.086;11.632;2023-12-20T08:58:40;4.90;99.90
22430;DHT22;11382;48.086;11.632;2023-12-20T09:01:09;5.00;99.90
22430;DHT22;11382;48.086;11.632;2023-12-20T09:03:38;5.10;99.90
22430;DHT22;11382;48.086;11.632;2023-12-20T09:06:07;5.10;99.90
22430;DHT22;11382;48.086;11.632;2023-12-20T09:08:35;5.10;99.90
22430;DHT22;11382;48.086;11.632;2023-12-20T09:11:06;5.20;99.90
22430;DHT22;11382;48.086;11.632;2023-12-20T09:13:35;5.40;99.90
22430;DHT22;11382;48.086;11.632;2023-12-20T09:16:03;5.50;99.90
22430;DHT22;11382;48.086;11.632;2023-12-20T09:18:31;5.60;99.90
22430;DHT22;11382;48.086;11.632;2023-12-20T09:21:00;5.70;99.90
22430;DHT22;11382;48.086;11.632;2023-12-20T09:23:28;5.70;99.90
22430;DHT22;11382;48.086;11.632;2023-12-20T09:25:56;6.00;99.90
22430;DHT22;11382;48.086;11.632;2023-12-20T09:28:26;6.00;99.90
22430;DHT22;11382;48.086;11.632;2023-12-20T09:30:54;5.80;99.90
22430;DHT22;11382;48.086;11.632;2023-12-20T09:33:23;5.90;99.90
22430;DHT22;11382;48.086;11.632;2023-12-20T09:35:52;5.90;99.90
22430;DHT22;11382;48.086;11.632;2023-12-20T09:38:21;6.00;99.90
22430;DHT22;11382;48.086;11.632;2023-12-20T09:40:49;6.00;99.90
22430;DHT22;11382;48.086;11.632;2023-12-20T09:43:20;6.00;99.90
22430;DHT22;11382;48.086;11.632;2023-12-20T09:45:52;6.10;99.90
22430;DHT22;11382;48.086;11.632;2023-12-20T09:48:21;6.00;99.90
22430;DHT22;11382;48.086;11.632;2023-12-20T09:50:49;6.00;99.90
22430;DHT22;11382;48.086;11.632;2023-12-20T09:53:21;6.00;99.90
22430;DHT22;11382;48.086;11.632;2023-12-20T09:55:58;5.90;99.90
22430;DHT22;11382;48.086;11.632;2023-12-20T09:58:29;5.80;99.90
22430;DHT22;11382;48.086;11.632;2023-12-20T10:00:59;5.80;99.90
22430;DHT22;11382;48.086;11.632;2023-12-20T10:03:29;5.90;99.90
22430;DHT22;11382;48.086;11.632;2023-12-20T10:05:59;5.90;99.90
22430;DHT22;11382;48.086;11.632;2023-12-20T10:08:28;6.10;99.90
22430;DHT22;11382;48.086;11.632;2023-12-20T10:10:57;6.20;99.90
22430;DHT22;11382;48.086;11.632;2023-12-20T10:13:29;6.30;99.90
22430;DHT22;11382;48.086;11.632;2023-12-20T10:15:59;6.60;99.90
22430;DHT22;11382;48.086;11.632;2023-12-20T10:18:29;6.90;99.90
22430;DHT22;11382;48.086;11.632;2023-12-20T10:21:06;6.90;99.90
22430;DHT22;11382;48.086;11.632;2023-12-20T10:23:37;7.00;99.90
22430;DHT22;11382;48.086;11.632;2023-12-20T10:26:06;6.90;99.90
22430;DHT22;11382;48.086;11.632;2023-12-20T10:28:36;7.00;99.90
22430;DHT22;11382;48.086;11.632;2023-12-20T10:31:06;7.10;99.90
22430;DHT22;11382;48.086;11.632;2023-12-20T10:33:34;7.20;99.90
22430;DHT22;11382;48.086;11.632;2023-12-20T10:36:03;7.30;99.90
22430;DHT22;11382;48.086;11.632;2023-12-20T10:38:31;7.20;99.90
22430;DHT22;11382;48.086;11.632;2023-12-20T10:41:01;7.10;99.90
22430;DHT22;11382;48.086;11.632;2023-12-20T10:43:33;7.20;99.90
22430;DHT22;11382;48.086;11.632;2023-12-20T10:46:03;7.10;99.90
22430;DHT22;11382;48.086;11.632;2023-12-20T10:48:33;7.00;99.90
22430;DHT22;11382;48.086;11.632;2023-12-20T10:51:04;7.00;99.90
22430;DHT22;11382;48.086;11.632;2023-12-20T10:53:33;7.00;99.90
22430;DHT22;11382;48.086;11.632;2023-12-20T10:56:04;7.10;99.90
22430;DHT22;11382;48.086;11.632;2023-12-20T10:58:33;7.00;99.90
22430;DHT22;11382;48.086;11.632;2023-12-20T11:01:03;7.00;99.90
22430;DHT22;11382;48.086;11.632;2023-12-20T11:03:36;7.20;99.90
22430;DHT22;11382;48.086;11.632;2023-12-20T11:06:09;7.70;99.90
22430;DHT22;11382;48.086;11.632;2023-12-20T11:08:44;7.80;99.90
22430;DHT22;11382;48.086;11.632;2023-12-20T11:11:20;8.00;99.90
22430;DHT22;11382;48.086;11.632;2023-12-20T11:13:57;7.90;99.90
22430;DHT22;11382;48.086;11.632;2023-12-20T11:16:31;7.50;99.90
22430;DHT22;11382;48.086;11.632;2023-12-20T11:19:16;7.20;99.90
22430;DHT22;11382;48.086;11.632;2023-12-20T11:21:46;6.90;99.90
22430;DHT22;11382;48.086;11.632;2023-12-20T11:24:16;6.70;99.90
22430;DHT22;11382;48.086;11.632;2023-12-20T11:26:47;6.50;99.90
22430;DHT22;11382;48.086;11.632;2023-12-20T11:29:34;6.40;99.90
22430;DHT22;11382;48.086;11.632;2023-12-20T11:32:04;6.40;99.90
22430;DHT22;11382;48.086;11.632;2023-12-20T11:34:53;6.60;99.90
22430;DHT22;11382;48.086;11.632;2023-12-20T11:37:25;6.80;99.90
22430;DHT22;11382;48.086;11.632;2023-12-20T11:39:56;6.70;99.90
22430;DHT22;11382;48.086;11.632;2023-12-20T11:42:32;6.60;99.90
22430;DHT22;11382;48.086;11.632;2023-12-20T11:45:02;6.50;99.90
22430;DHT22;11382;48.086;11.632;2023-12-20T11:47:30;6.40;99.90
22430;DHT22;11382;48.086;11.632;2023-12-20T11:50:00;6.50;99.90
22430;DHT22;11382;48.086;11.632;2023-12-20T11:52:30;6.60;99.90
22430;DHT22;11382;48.086;11.632;2023-12-20T11:55:00;6.60;99.90
22430;DHT22;11382;48.086;11.632;2023-12-20T11:57:28;6.80;99.90
22430;DHT22;11382;48.086;11.632;2023-12-20T11:59:56;7.10;99.90
22430;DHT22;11382;48.086;11.632;2023-12-20T12:02:24;7.10;99.90
22430;DHT22;11382;48.086;11.632;2023-12-20T12:04:52;7.20;99.90
22430;DHT22;11382;48.086;11.632;2023-12-20T12:07:22;7.40;99.90
22430;DHT22;11382;48.086;11.632;2023-12-20T12:09:50;7.40;99.90
22430;DHT22;11382;48.086;11.632;2023-12-20T12:12:19;7.40;99.90
22430;DHT22;11382;48.086;11.632;2023-12-20T12:14:48;7.40;99.90
22430;DHT22;11382;48.086;11.632;2023-12-20T12:17:16;7.30;99.90
22430;DHT22;11382;48.086;11.632;2023-12-20T12:19:45;7.30;99.90
22430;DHT22;11382;48.086;11.632;2023-12-20T12:22:14;7.10;99.90
22430;DHT22;11382;48.086;11.632;2023-12-20T12:24:46;7.10;99.90
22430;DHT22;11382;48.086;11.632;2023-12-20T12:27:16;7.10;99.90
22430;DHT22;11382;48.086;11.632;2023-12-20T12:30:01;6.80;99.90
22430;DHT22;11382;48.086;11.632;2023-12-20T12:32:29;6.60;99.90
22430;DHT22;11382;48.086;11.632;2023-12-20T12:34:58;6.40;99.90
22430;DHT22;11382;48.086;11.632;2023-12-20T12:37:26;6.40;99.90
22430;DHT22;11382;48.086;11.632;2023-12-20T12:39:55;6.30;99.90
22430;DHT22;11382;48.086;11.632;2023-12-20T12:42:24;6.20;99.90
22430;DHT22;11382;48.086;11.632;2023-12-20T12:44:55;6.20;99.90
22430;DHT22;11382;48.086;11.632;2023-12-20T12:47:24;6.10;99.90
22430;DHT22;11382;48.086;11.632;2023-12-20T12:49:52;6.20;99.90
22430;DHT22;11382;48.086;11.632;2023-12-20T12:52:21;6.10;99.90
22430;DHT22;11382;48.086;11.632;2023-12-20T12:54:49;6.10;99.90
22430;DHT22;11382;48.086;11.632;2023-12-20T12:57:19;6.10;99.90
22430;DHT22;11382;48.086;11.632;2023-12-20T12:59:47;6.10;99.90
22430;DHT22;11382;48.086;11.632;2023-12-20T13:02:15;6.10;99.90
22430;DHT22;11382;48.086;11.632;2023-12-20T13:04:43;6.20;99.90
22430;DHT22;11382;48.086;11.632;2023-12-20T13:07:12;6.30;99.90
22430;DHT22;11382;48.086;11.632;2023-12-20T13:09:40;6.50;99.90
22430;DHT22;11382;48.086;11.632;2023-12-20T13:12:08;6.70;99.90
22430;DHT22;11382;48.086;11.632;2023-12-20T13:14:38;6.70;99.90
22430;DHT22;11382;48.086;11.632;2023-12-20T13:17:07;6.80;99.90
22430;DHT22;11382;48.086;11.632;2023-12-20T13:19:35;6.70;99.90
22430;DHT22;11382;48.086;11.632;2023-12-20T13:22:04;6.60;99.90
22430;DHT22;11382;48.086;11.632;2023-12-20T13:24:32;6.40;99.90
22430;DHT22;11382;48.086;11.632;2023-12-20T13:27:00;6.30;99.90
22430;DHT22;11382;48.086;11.632;2023-12-20T13:29:28;6.20;99.90
22430;DHT22;11382;48.086;11.632;2023-12-20T13:31:57;5.90;99.90
22430;DHT22;11382;48.086;11.632;2023-12-20T13:34:25;5.70;99.90
22430;DHT22;11382;48.086;11.632;2023-12-20T13:36:54;5.50;99.90
22430;DHT22;11382;48.086;11.632;2023-12-20T13:39:23;5.30;99.90
22430;DHT22;11382;48.086;11.632;2023-12-20T13:41:51;5.30;99.90
22430;DHT22;11382;48.086;11.632;2023-12-20T13:44:19;5.20;99.90
22430;DHT22;11382;48.086;11.632;2023-12-20T13:46:47;5.10;99.90
22430;DHT22;11382;48.086;11.632;2023-12-20T13:49:18;5.10;99.90
22430;DHT22;11382;48.086;11.632;2023-12-20T13:51:46;5.10;99.90
22430;DHT22;11382;48.086;11.632;2023-12-20T13:54:14;5.00;99.90
22430;DHT22;11382;48.086;11.632;2023-12-20T13:56:43;5.00;99.90
22430;DHT22;11382;48.086;11.632;2023-12-20T13:59:31;4.90;99.90
22430;DHT22;11382;48.086;11.632;2023-12-20T14:01:59;5.00;99.90
22430;DHT22;11382;48.086;11.632;2023-12-20T14:04:29;4.90;99.90
22430;DHT22;11382;48.086;11.632;2023-12-20T14:07:09;4.80;99.90
22430;DHT22;11382;48.086;11.632;2023-12-20T14:09:39;4.90;99.90
22430;DHT22;11382;48.086;11.632;2023-12-20T14:12:12;5.00;99.90
22430;DHT22;11382;48.086;11.632;2023-12-20T14:14:40;4.90;99.90
22430;DHT22;11382;48.086;11.632;2023-12-20T14:17:08;4.90;99.90
22430;DHT22;11382;48.086;11.632;2023-12-20T14:19:38;5.00;99.90
22430;DHT22;11382;48.086;11.632;2023-12-20T14:22:06;5.10;99.90
22430;DHT22;11382;48.086;11.632;2023-12-20T14:24:35;5.10;99.90
22430;DHT22;11382;48.086;11.632;2023-12-20T14:27:03;5.10;99.90
22430;DHT22;11382;48.086;11.632;2023-12-20T14:29:31;5.00;99.90
22430;DHT22;11382;48.086;11.632;2023-12-20T14:32:03;5.00;99.90
22430;DHT22;11382;48.086;11.632;2023-12-20T14:34:33;5.00;99.90
22430;DHT22;11382;48.086;11.632;2023-12-20T14:37:03;4.90;99.90
22430;DHT22;11382;48.086;11.632;2023-12-20T14:39:34;4.90;99.90
22430;DHT22;11382;48.086;11.632;2023-12-20T14:42:06;4.90;99.90
22430;DHT22;11382;48.086;11.632;2023-12-20T14:44:37;5.00;99.90
22430;DHT22;11382;48.086;11.632;2023-12-20T14:47:06;4.90;99.90
22430;DHT22;11382;48.086;11.632;2023-12-20T14:49:35;4.90;99.90
22430;DHT22;11382;48.086;11.632;2023-12-20T14:52:05;5.00;99.90
22430;DHT22;11382;48.086;11.632;2023-12-20T14:54:34;5.00;99.90
22430;DHT22;11382;48.086;11.632;2023-12-20T14:57:02;5.00;99.90
22430;DHT22;11382;48.086;11.632;2023-12-20T14:59:32;4.90;99.90
22430;DHT22;11382;48.086;11.632;2023-12-20T15:02:00;4.90;99.90
22430;DHT22;11382;48.086;11.632;2023-12-20T15:04:31;4.90;99.90
22430;DHT22;11382;48.086;11.632;2023-12-20T15:07:00;4.80;99.90
22430;DHT22;11382;48.086;11.632;2023-12-20T15:09:32;4.80;99.90
22430;DHT22;11382;48.086;11.632;2023-12-20T15:12:02;4.80;99.90
22430;DHT22;11382;48.086;11.632;2023-12-20T15:14:30;4.70;99.90
22430;DHT22;11382;48.086;11.632;2023-12-20T15:16:58;4.70;99.90
22430;DHT22;11382;48.086;11.632;2023-12-20T15:19:26;4.70;99.90
22430;DHT22;11382;48.086;11.632;2023-12-20T15:21:54;4.70;99.90
22430;DHT22;11382;48.086;11.632;2023-12-20T15:24:22;4.70;99.90
22430;DHT22;11382;48.086;11.632;2023-12-20T15:26:56;4.60;99.90
22430;DHT22;11382;48.086;11.632;2023-12-20T15:29:24;4.60;99.90
22430;DHT22;11382;48.086;11.632;2023-12-20T15:31:52;4.60;99.90
22430;DHT22;11382;48.086;11.632;2023-12-20T15:34:21;4.60;99.90
22430;DHT22;11382;48.086;11.632;2023-12-20T15:36:49;4.50;99.90
22430;DHT22;11382;48.086;11.632;2023-12-20T15:39:17;4.50;99.90
22430;DHT22;11382;48.086;11.632;2023-12-20T15:41:45;4.50;99.90
22430;DHT22;11382;48.086;11.632;2023-12-20T15:44:15;4.50;99.90